Time;durP1;ratioP1;P1;durP2;ratioP2;P2;SDS_P1;SDS_P2;PMS_P1;PMS_P2;Temp;Humidity;BMP_temperature;BMP_pressure;BME280_temperature;BME280_humidity;BME280_pressure;Samples;Min_cycle;Max_cycle;Signal;HPM_P1;HPM_P2
2022/09/14 00:00:56;;;;;;;7.80;1.33;;;13.40;99.90;;;;;;4971068;28;20526;-83
2022/09/14 00:03:22;;;;;;;5.57;1.23;;;13.40;99.90;;;;;;4973932;28;20054;-83
2022/09/14 00:05:48;;;;;;;5.07;1.25;;;13.40;99.90;;;;;;4971086;28;20069;-84
2022/09/14 00:08:14;;;;;;;3.58;0.90;;;13.40;99.90;;;;;;4938386;28;20077;-83
2022/09/14 00:10:42;;;;;;;3.35;0.88;;;13.50;99.90;;;;;;4954072;28;20094;-83
2022/09/14 00:13:09;;;;;;;5.45;1.15;;;13.50;99.90;;;;;;4969949;28;20854;-83
2022/09/14 00:15:40;;;;;;;5.95;0.90;;;13.40;99.90;;;;;;4955864;28;20034;-83
2022/09/14 00:18:08;;;;;;;5.45;0.85;;;13.50;99.90;;;;;;4955956;28;20455;-84
2022/09/14 00:20:34;;;;;;;3.63;0.95;;;13.50;99.90;;;;;;4960605;28;20030;-83
2022/09/14 00:23:00;;;;;;;4.43;1.27;;;13.40;99.90;;;;;;4953637;28;20053;-83
2022/09/14 00:25:26;;;;;;;4.07;0.93;;;13.50;99.90;;;;;;4953499;28;20050;-83
2022/09/14 00:27:53;;;;;;;6.30;1.00;;;13.50;99.90;;;;;;4969736;28;20058;-84
2022/09/14 00:30:19;;;;;;;2.75;0.95;;;13.40;99.90;;;;;;4952762;28;20526;-83
2022/09/14 00:32:45;;;;;;;4.00;1.20;;;13.40;99.90;;;;;;4971143;28;20042;-82
2022/09/14 00:35:11;;;;;;;4.97;0.98;;;13.40;99.90;;;;;;4953645;28;20045;-84
2022/09/14 00:37:38;;;;;;;4.65;1.10;;;13.30;99.90;;;;;;4956943;28;20129;-83
2022/09/14 00:40:04;;;;;;;4.65;1.15;;;13.30;99.90;;;;;;4953638;28;20039;-84
2022/09/14 00:42:30;;;;;;;6.40;1.30;;;13.30;99.90;;;;;;4969567;28;20623;-84
2022/09/14 00:45:13;;;;;;;6.32;1.67;;;13.30;99.90;;;;;;4953599;28;20162;-84
2022/09/14 00:47:39;;;;;;;4.57;1.50;;;13.20;99.90;;;;;;4972821;28;20043;-84
2022/09/14 00:50:06;;;;;;;4.28;1.50;;;13.40;99.90;;;;;;4953850;28;20039;-84
2022/09/14 00:52:35;;;;;;;5.00;1.30;;;13.20;99.90;;;;;;4952074;28;20047;-84
2022/09/14 00:55:04;;;;;;;4.38;1.25;;;13.20;99.90;;;;;;4956786;28;20042;-84
2022/09/14 00:57:36;;;;;;;5.07;1.38;;;13.10;99.90;;;;;;4937522;28;20043;-83
2022/09/14 01:00:04;;;;;;;4.13;1.67;;;13.10;99.90;;;;;;4969052;28;20074;-84
2022/09/14 01:02:31;;;;;;;3.10;1.13;;;13.10;99.90;;;;;;4969388;28;20042;-83
2022/09/14 01:04:56;;;;;;;3.35;1.20;;;13.10;99.90;;;;;;4968409;28;20499;-84
2022/09/14 01:07:41;;;;;;;6.32;2.75;;;13.00;99.90;;;;;;4968164;28;20054;-84
2022/09/14 01:10:17;;;;;;;3.63;1.00;;;13.00;99.90;;;;;;4947758;28;20047;-84
2022/09/14 01:13:07;;;;;;;6.88;1.13;;;13.00;99.90;;;;;;4933103;28;20051;-84
2022/09/14 01:15:51;;;;;;;3.05;1.45;;;13.00;99.90;;;;;;4965787;28;20050;-84
2022/09/14 01:18:31;;;;;;;3.50;1.75;;;12.90;99.90;;;;;;4967883;28;20050;-84
2022/09/14 01:21:02;;;;;;;3.75;1.23;;;12.90;99.90;;;;;;4969291;28;20047;-84
2022/09/14 01:23:46;;;;;;;4.13;1.50;;;12.90;99.90;;;;;;4952578;28;20049;-84
2022/09/14 01:26:29;;;;;;;5.40;1.45;;;12.90;99.90;;;;;;4953763;28;20045;-84
2022/09/14 01:29:04;;;;;;;3.25;1.20;;;12.90;99.90;;;;;;4952548;28;20082;-84
2022/09/14 01:31:54;;;;;;;6.68;1.45;;;12.80;99.90;;;;;;4967794;28;20053;-83
2022/09/14 01:34:39;;;;;;;6.53;1.30;;;12.80;99.90;;;;;;4964484;28;20504;-82
2022/09/14 01:37:11;;;;;;;5.82;1.42;;;12.80;99.90;;;;;;4969990;28;20049;-83
2022/09/14 01:39:42;;;;;;;5.60;1.40;;;12.70;99.90;;;;;;4951589;28;20054;-84
2022/09/14 01:42:11;;;;;;;6.25;1.52;;;12.70;99.90;;;;;;4952259;28;20038;-84
2022/09/14 01:44:40;;;;;;;3.85;1.35;;;12.60;99.90;;;;;;4947076;28;20109;-84
2022/09/14 01:47:16;;;;;;;6.72;1.58;;;12.60;99.90;;;;;;4951968;28;20078;-84
2022/09/14 01:49:51;;;;;;;4.85;1.50;;;12.50;99.90;;;;;;4963359;28;20097;-84
2022/09/14 01:52:25;;;;;;;9.75;2.05;;;12.50;99.90;;;;;;4963089;28;20046;-84
2022/09/14 01:54:57;;;;;;;2.97;1.70;;;12.50;99.90;;;;;;4948006;28;20122;-84
2022/09/14 01:57:29;;;;;;;5.60;2.53;;;12.50;99.90;;;;;;4968575;28;20047;-84
2022/09/14 02:00:00;;;;;;;6.00;1.88;;;12.50;99.90;;;;;;4951844;28;20057;-84
2022/09/14 02:02:35;;;;;;;6.55;2.00;;;12.90;99.90;;;;;;4935385;29;20138;-84
2022/09/14 02:05:18;;;;;;;5.00;2.40;;;12.50;99.90;;;;;;4934471;29;20047;-84
2022/09/14 02:07:44;;;;;;;4.40;1.90;;;12.50;99.90;;;;;;4947272;28;20844;-84
2022/09/14 02:10:13;;;;;;;5.47;2.55;;;12.40;99.90;;;;;;4930535;29;20039;-84
2022/09/14 02:12:40;;;;;;;6.32;2.10;;;12.50;99.90;;;;;;4933015;29;20040;-84
2022/09/14 02:15:08;;;;;;;7.07;1.90;;;12.50;99.90;;;;;;4948815;29;20058;-84
2022/09/14 02:17:34;;;;;;;5.80;2.35;;;12.50;99.90;;;;;;4932521;29;20083;-84
2022/09/14 02:20:03;;;;;;;4.22;2.28;;;12.50;99.90;;;;;;4949305;29;20079;-83
2022/09/14 02:22:29;;;;;;;7.55;2.40;;;12.50;99.90;;;;;;4933094;29;20069;-83
2022/09/14 02:24:56;;;;;;;5.53;2.78;;;12.60;99.90;;;;;;4947618;29;20051;-83
2022/09/14 02:27:21;;;;;;;7.80;3.47;;;12.60;99.90;;;;;;4933427;29;20059;-84
2022/09/14 02:29:47;;;;;;;6.80;2.58;;;12.60;99.90;;;;;;4937064;29;20047;-84
2022/09/14 02:32:29;;;;;;;5.22;2.15;;;12.70;99.90;;;;;;4936682;29;20043;-84
2022/09/14 02:35:15;;;;;;;6.70;2.10;;;12.70;99.90;;;;;;4931640;29;20050;-84
2022/09/14 02:37:59;;;;;;;7.38;2.30;;;12.80;99.90;;;;;;4936565;29;20058;-84
2022/09/14 02:40:31;;;;;;;7.77;3.20;;;12.80;99.90;;;;;;4938311;29;20526;-84
2022/09/14 02:43:41;;;;;;;4.97;2.47;;;12.80;99.90;;;;;;4936655;29;20377;-84
2022/09/14 02:46:13;;;;;;;6.20;1.80;;;12.80;99.90;;;;;;4897847;29;20265;-84
2022/09/14 02:48:38;;;;;;;6.22;2.15;;;12.80;99.90;;;;;;4903630;29;20881;-84
2022/09/14 02:51:42;;;;;;;7.00;2.50;;;12.90;99.90;;;;;;4894035;29;20048;-84
2022/09/14 02:54:20;;;;;;;5.43;2.30;;;13.00;99.90;;;;;;4880178;29;20056;-84
2022/09/14 02:56:46;;;;;;;4.70;2.67;;;12.90;99.90;;;;;;4902596;29;20139;-84
2022/09/14 02:59:12;;;;;;;5.93;2.63;;;13.00;99.90;;;;;;4878846;29;20616;-84
2022/09/14 03:01:38;;;;;;;5.68;2.20;;;13.00;99.90;;;;;;4903101;29;20053;-83
2022/09/14 03:04:04;;;;;;;6.07;2.60;;;13.10;99.90;;;;;;4881155;29;20048;-84
2022/09/14 03:06:29;;;;;;;7.80;2.97;;;13.10;99.90;;;;;;4888731;29;20065;-84
2022/09/14 03:08:55;;;;;;;7.40;2.90;;;13.10;99.90;;;;;;4894539;29;20212;-84
2022/09/14 03:11:20;;;;;;;9.35;3.25;;;13.10;99.90;;;;;;4893867;29;20048;-84
2022/09/14 03:13:46;;;;;;;7.00;2.60;;;13.30;99.90;;;;;;4894948;29;20625;-84
2022/09/14 03:16:15;;;;;;;6.68;3.15;;;13.20;99.90;;;;;;4892535;29;20056;-84
2022/09/14 03:18:41;;;;;;;7.93;2.70;;;13.30;99.90;;;;;;4951452;28;20034;-84
2022/09/14 03:21:12;;;;;;;6.43;2.80;;;13.30;99.90;;;;;;4966401;28;20039;-84
2022/09/14 03:23:41;;;;;;;5.57;3.00;;;13.30;99.90;;;;;;4951565;28;20126;-84
2022/09/14 03:26:08;;;;;;;7.63;2.88;;;13.40;99.90;;;;;;4964589;28;20051;-84
2022/09/14 03:28:34;;;;;;;7.90;2.72;;;13.40;99.90;;;;;;4973248;28;20039;-84
2022/09/14 03:31:01;;;;;;;6.13;2.65;;;13.40;99.90;;;;;;4949953;29;20035;-84
2022/09/14 03:33:27;;;;;;;4.65;2.20;;;13.40;99.90;;;;;;4952804;28;20042;-84
2022/09/14 03:35:52;;;;;;;8.98;2.58;;;13.40;99.90;;;;;;4971494;28;20035;-84
2022/09/14 03:38:18;;;;;;;3.85;2.28;;;13.70;99.90;;;;;;4972019;28;20631;-85
2022/09/14 03:40:44;;;;;;;12.10;4.05;;;13.50;99.90;;;;;;4968540;28;21745;-85
2022/09/14 03:43:11;;;;;;;5.90;1.80;;;13.50;99.90;;;;;;4964597;28;20114;-85
2022/09/14 03:45:37;;;;;;;8.23;2.33;;;13.50;99.90;;;;;;4954090;28;20130;-85
2022/09/14 03:48:04;;;;;;;6.57;2.15;;;13.50;99.90;;;;;;4959107;28;20034;-85
2022/09/14 03:50:30;;;;;;;6.65;2.50;;;13.50;99.90;;;;;;4940192;28;20133;-84
2022/09/14 03:52:56;;;;;;;6.95;2.47;;;13.60;99.90;;;;;;4965791;28;20038;-84
2022/09/14 03:55:22;;;;;;;8.55;2.42;;;13.60;99.90;;;;;;4953882;28;20054;-84
2022/09/14 03:57:47;;;;;;;7.50;2.63;;;13.60;99.90;;;;;;4955731;28;20058;-84
2022/09/14 04:00:14;;;;;;;8.32;2.67;;;13.60;99.90;;;;;;4954316;28;20051;-85
2022/09/14 04:02:40;;;;;;;6.82;2.45;;;13.60;99.90;;;;;;4945629;28;20046;-84
2022/09/14 04:05:06;;;;;;;5.53;2.20;;;13.70;99.90;;;;;;4948661;28;20043;-85
2022/09/14 04:07:32;;;;;;;8.95;2.38;;;13.60;99.90;;;;;;4952852;29;20102;-85
2022/09/14 04:09:57;;;;;;;6.30;2.20;;;13.60;99.90;;;;;;4957474;28;20571;-84
2022/09/14 04:12:23;;;;;;;10.10;2.22;;;13.60;99.90;;;;;;4934472;28;20055;-84
2022/09/14 04:14:49;;;;;;;5.65;2.00;;;13.70;99.90;;;;;;4934566;28;20396;-83
2022/09/14 04:17:16;;;;;;;7.72;2.50;;;13.70;99.90;;;;;;4953836;28;20042;-84
2022/09/14 04:19:41;;;;;;;6.78;1.95;;;13.60;99.90;;;;;;4935082;29;20067;-85
2022/09/14 04:22:07;;;;;;;5.97;2.08;;;13.70;99.90;;;;;;4919611;29;20043;-85
2022/09/14 04:24:33;;;;;;;9.15;2.47;;;13.70;99.90;;;;;;4952950;28;20051;-85
2022/09/14 04:26:59;;;;;;;9.48;2.83;;;13.70;99.90;;;;;;4933987;29;20082;-84
2022/09/14 04:29:25;;;;;;;9.20;2.10;;;13.70;99.90;;;;;;4958588;28;20039;-85
2022/09/14 04:31:50;;;;;;;6.40;2.30;;;13.70;99.90;;;;;;4952825;29;20040;-85
2022/09/14 04:34:16;;;;;;;5.15;2.28;;;13.70;99.90;;;;;;4933577;29;20157;-85
2022/09/14 04:36:42;;;;;;;8.43;2.28;;;13.70;99.90;;;;;;4950279;29;20089;-85
2022/09/14 04:39:10;;;;;;;8.20;2.17;;;13.70;99.90;;;;;;4946834;28;20076;-86
2022/09/14 04:41:36;;;;;;;8.25;2.38;;;13.70;99.90;;;;;;4958016;28;20063;-85
2022/09/14 04:44:01;;;;;;;5.32;2.58;;;13.70;99.90;;;;;;4934559;29;20043;-84
2022/09/14 04:46:30;;;;;;;4.93;2.63;;;14.30;99.90;;;;;;4933827;29;20047;-84
2022/09/14 04:48:56;;;;;;;9.02;2.67;;;13.70;99.90;;;;;;4958425;28;20140;-85
2022/09/14 04:51:25;;;;;;;5.90;2.47;;;13.70;99.90;;;;;;4931541;28;20443;-85
2022/09/14 04:53:55;;;;;;;13.20;2.47;;;13.70;99.90;;;;;;4947266;28;20051;-84
2022/09/14 04:56:22;;;;;;;6.20;2.03;;;13.70;99.90;;;;;;4947514;29;20037;-85
2022/09/14 04:58:51;;;;;;;8.40;3.10;;;13.70;99.90;;;;;;4951903;28;20062;-85
2022/09/14 05:01:19;;;;;;;6.32;2.40;;;13.70;99.90;;;;;;4957924;28;20051;-86
2022/09/14 05:03:45;;;;;;;6.95;2.38;;;13.70;99.90;;;;;;4952971;28;20046;-87
2022/09/14 05:06:16;;;;;;;6.90;2.25;;;13.70;99.90;;;;;;4953079;28;20106;-85
2022/09/14 05:08:43;;;;;;;6.68;2.08;;;13.60;99.90;;;;;;4929656;28;20055;-86
2022/09/14 05:11:12;;;;;;;9.45;2.13;;;13.60;99.90;;;;;;4969697;28;20039;-86
2022/09/14 05:13:38;;;;;;;8.10;2.67;;;13.60;99.90;;;;;;4956438;28;20050;-85
2022/09/14 05:16:21;;;;;;;6.30;2.60;;;13.80;99.90;;;;;;4970323;28;20042;-84
2022/09/14 05:18:48;;;;;;;8.00;2.35;;;13.70;99.90;;;;;;4951502;28;20051;-84
2022/09/14 05:21:16;;;;;;;6.70;2.40;;;13.70;99.90;;;;;;4969922;28;20035;-84
2022/09/14 05:23:42;;;;;;;10.43;2.58;;;13.70;99.90;;;;;;4968363;28;20047;-90
2022/09/14 05:26:08;;;;;;;5.85;2.45;;;13.90;99.90;;;;;;4953874;28;20376;-89
2022/09/14 05:28:36;;;;;;;7.40;2.35;;;13.70;99.90;;;;;;4954604;28;20030;-89
2022/09/14 05:31:07;;;;;;;7.20;2.60;;;13.60;99.90;;;;;;4951250;28;20050;-88
2022/09/14 05:33:33;;;;;;;7.65;2.47;;;13.70;99.90;;;;;;4954841;28;20066;-90
2022/09/14 05:36:04;;;;;;;6.25;2.25;;;14.00;99.90;;;;;;4954927;28;20054;-89
2022/09/14 05:38:32;;;;;;;6.05;2.33;;;13.70;99.90;;;;;;4955174;28;20047;-88
2022/09/14 05:40:58;;;;;;;6.53;2.17;;;13.70;99.90;;;;;;4971223;28;20515;-88
2022/09/14 05:43:24;;;;;;;8.20;2.30;;;13.70;99.90;;;;;;4953562;28;20098;-88
2022/09/14 05:45:50;;;;;;;9.80;2.90;;;13.80;99.90;;;;;;4970184;28;20483;-87
2022/09/14 05:48:17;;;;;;;7.90;2.63;;;13.80;99.90;;;;;;4951995;28;20062;-88
2022/09/14 05:50:43;;;;;;;8.18;2.30;;;13.80;99.90;;;;;;4937689;28;20058;-88
2022/09/14 05:53:09;;;;;;;5.95;1.98;;;14.60;99.90;;;;;;4971961;28;20149;-88
2022/09/14 05:55:34;;;;;;;4.45;1.92;;;13.90;99.90;;;;;;4940400;28;20547;-88
2022/09/14 05:58:00;;;;;;;5.60;2.28;;;13.90;99.90;;;;;;4954249;28;20042;-89
2022/09/14 06:00:26;;;;;;;5.13;1.95;;;13.90;99.90;;;;;;4970244;28;20464;-88
2022/09/14 06:02:53;;;;;;;4.78;1.73;;;13.90;99.90;;;;;;4977337;28;20053;-85
2022/09/14 06:05:20;;;;;;;5.82;2.33;;;14.00;99.90;;;;;;4976393;28;20082;-86
2022/09/14 06:07:50;;;;;;;4.65;1.40;;;14.00;99.90;;;;;;4957984;28;20523;-87
2022/09/14 06:10:16;;;;;;;5.18;2.10;;;14.00;99.90;;;;;;4954761;28;20038;-86
2022/09/14 06:12:41;;;;;;;7.65;1.95;;;14.00;99.90;;;;;;4957231;28;20062;-87
2022/09/14 06:15:07;;;;;;;5.72;1.98;;;14.00;99.90;;;;;;4975355;28;20043;-86
2022/09/14 06:17:33;;;;;;;7.18;1.98;;;14.10;99.90;;;;;;4958253;28;20050;-87
2022/09/14 06:19:59;;;;;;;7.78;2.10;;;14.10;99.90;;;;;;4974892;28;20153;-87
2022/09/14 06:22:24;;;;;;;6.47;2.20;;;14.10;99.90;;;;;;4974345;28;20042;-86
2022/09/14 06:24:50;;;;;;;6.15;2.10;;;14.20;99.90;;;;;;4974685;28;20042;-87
2022/09/14 06:27:15;;;;;;;8.90;2.20;;;14.20;99.90;;;;;;4974182;28;20053;-87
2022/09/14 06:29:41;;;;;;;8.45;2.30;;;14.30;99.90;;;;;;4956292;28;20050;-87
2022/09/14 06:32:06;;;;;;;7.72;2.30;;;14.30;99.90;;;;;;4974840;28;20143;-86
2022/09/14 06:34:32;;;;;;;11.10;2.80;;;14.40;99.90;;;;;;4969333;28;20043;-86
2022/09/14 06:36:57;;;;;;;4.43;2.00;;;14.40;99.90;;;;;;4974235;28;20050;-86
2022/09/14 06:39:23;;;;;;;4.75;1.95;;;14.40;99.90;;;;;;4971551;28;20206;-86
2022/09/14 06:41:50;;;;;;;7.57;2.95;;;14.50;99.90;;;;;;4973897;28;20038;-86
2022/09/14 06:44:16;;;;;;;5.40;1.88;;;14.60;99.90;;;;;;4981773;28;20181;-86
2022/09/14 06:46:43;;;;;;;5.00;2.30;;;14.50;99.90;;;;;;4957475;28;20141;-86
2022/09/14 06:49:12;;;;;;;6.80;2.22;;;14.60;99.90;;;;;;4960506;28;20487;-86
2022/09/14 06:51:43;;;;;;;6.18;2.10;;;14.60;99.90;;;;;;4959411;28;20521;-86
2022/09/14 06:54:11;;;;;;;11.25;2.75;;;14.70;99.90;;;;;;4958005;28;20495;-86
2022/09/14 06:56:39;;;;;;;3.38;1.73;;;14.80;99.90;;;;;;4955702;28;20050;-86
2022/09/14 06:59:07;;;;;;;6.97;2.47;;;14.80;99.90;;;;;;4970767;28;20075;-86
2022/09/14 07:01:33;;;;;;;7.28;2.20;;;14.90;99.90;;;;;;4957172;28;20070;-87
2022/09/14 07:04:00;;;;;;;7.40;2.55;;;15.00;99.90;;;;;;4959163;28;20410;-87
2022/09/14 07:06:29;;;;;;;4.90;2.17;;;15.30;99.90;;;;;;4956982;28;20052;-87
2022/09/14 07:08:55;;;;;;;4.10;2.00;;;15.20;99.90;;;;;;4974856;28;20046;-86
2022/09/14 07:11:26;;;;;;;4.45;1.92;;;15.30;99.90;;;;;;4958638;28;20041;-86
2022/09/14 07:13:53;;;;;;;5.00;2.05;;;15.40;99.90;;;;;;4957831;28;20063;-86
2022/09/14 07:16:20;;;;;;;5.97;2.20;;;15.40;99.90;;;;;;4954621;28;20046;-87
2022/09/14 07:18:46;;;;;;;5.40;1.67;;;15.50;99.90;;;;;;4971042;28;20164;-85
2022/09/14 07:21:16;;;;;;;5.20;1.52;;;15.60;99.90;;;;;;4954460;28;20043;-84
2022/09/14 07:23:43;;;;;;;4.40;1.70;;;15.60;99.90;;;;;;4939407;28;20047;-84
2022/09/14 07:26:15;;;;;;;6.53;2.08;;;15.70;99.90;;;;;;4971143;28;20451;-85
2022/09/14 07:28:43;;;;;;;6.78;1.83;;;15.80;99.90;;;;;;4971634;28;20459;-85
2022/09/14 07:31:24;;;;;;;7.28;1.42;;;15.80;99.90;;;;;;4970856;28;20039;-85
2022/09/14 07:33:55;;;;;;;4.43;1.55;;;15.90;99.90;;;;;;4954148;28;20043;-85
2022/09/14 07:36:22;;;;;;;4.90;1.20;;;16.00;99.90;;;;;;4971768;28;20054;-85
2022/09/14 07:38:47;;;;;;;4.72;1.20;;;16.10;99.90;;;;;;4955950;28;20057;-85
2022/09/14 07:41:17;;;;;;;4.82;1.10;;;16.20;99.90;;;;;;4956272;28;20039;-85
2022/09/14 07:43:43;;;;;;;6.28;1.23;;;16.30;99.90;;;;;;4971629;28;20089;-85
2022/09/14 07:46:08;;;;;;;2.90;0.90;;;16.30;99.90;;;;;;4971294;28;20125;-85
2022/09/14 07:48:35;;;;;;;3.22;0.75;;;16.40;99.90;;;;;;4954608;28;20500;-85
2022/09/14 07:51:06;;;;;;;4.85;0.73;;;16.40;99.90;;;;;;4969584;28;20074;-85
2022/09/14 07:53:37;;;;;;;4.22;0.63;;;16.50;99.90;;;;;;4938228;28;20776;-79
2022/09/14 07:56:04;;;;;;;2.83;0.82;;;16.50;99.90;;;;;;4935217;28;20054;-80
2022/09/14 08:03:53;;;;;;;4.78;0.90;;;16.70;99.90;;;;;;5435422;23;20059;-81
2022/09/14 08:06:21;;;;;;;4.20;0.70;;;16.80;99.90;;;;;;4951677;28;20126;-80
2022/09/14 08:08:50;;;;;;;7.32;0.90;;;16.80;99.90;;;;;;4950211;28;20079;-79
2022/09/14 08:11:45;;;;;;;3.58;0.63;;;16.80;99.90;;;;;;4948092;28;20063;-79
2022/09/14 08:14:12;;;;;;;;;;;16.90;99.90;;;;;;4924333;29;20122;-87
2022/09/14 08:16:39;;;;;;;3.42;0.65;;;16.90;99.90;;;;;;4952382;28;19922;-87
2022/09/14 08:19:09;;;;;;;4.50;0.63;;;16.90;99.90;;;;;;4952545;28;20063;-87
2022/09/14 08:21:35;;;;;;;5.70;1.15;;;16.90;99.90;;;;;;4953116;28;20628;-86
2022/09/14 08:24:03;;;;;;;3.20;0.65;;;17.00;99.90;;;;;;4956286;28;20043;-86
2022/09/14 08:26:28;;;;;;;3.90;0.60;;;17.00;99.90;;;;;;4955376;28;20118;-86
2022/09/14 08:28:55;;;;;;;7.95;1.27;;;17.00;99.90;;;;;;4935195;28;20134;-86
2022/09/14 08:31:23;;;;;;;8.10;1.27;;;17.10;99.90;;;;;;4939534;28;20047;-86
2022/09/14 08:33:57;;;;;;;4.30;0.82;;;17.10;99.90;;;;;;4951341;28;20051;-86
2022/09/14 08:36:24;;;;;;;6.13;1.33;;;17.20;99.90;;;;;;4953199;28;20078;-87
2022/09/14 08:38:50;;;;;;;4.82;0.85;;;17.20;99.90;;;;;;4933724;29;20077;-87
2022/09/14 08:41:38;;;;;;;6.00;0.85;;;17.20;99.90;;;;;;4951385;28;20048;-87
2022/09/14 08:44:39;;;;;;;8.27;1.98;;;17.10;99.90;;;;;;4949725;28;20050;-86
2022/09/14 08:47:11;;;;;;;7.05;1.00;;;17.10;99.90;;;;;;4945892;28;20264;-87
2022/09/14 08:49:50;;;;;;;5.20;0.80;;;17.10;99.90;;;;;;4931379;28;20055;-87
2022/09/14 08:52:37;;;;;;;8.02;1.00;;;17.20;99.90;;;;;;4948076;28;20522;-87
2022/09/14 08:55:36;;;;;;;7.13;1.10;;;17.30;99.90;;;;;;4950506;28;20039;-86
2022/09/14 08:58:08;;;;;;;8.65;0.93;;;17.40;99.90;;;;;;4945937;28;20047;-87
2022/09/14 09:01:25;;;;;;;5.88;1.02;;;17.40;99.90;;;;;;4950758;28;20047;-87
2022/09/14 09:04:08;;;;;;;5.82;0.90;;;17.50;99.90;;;;;;4894834;29;20469;-87
2022/09/14 09:06:50;;;;;;;9.23;0.90;;;17.50;99.90;;;;;;4910452;29;20051;-87
2022/09/14 09:09:26;;;;;;;4.35;0.70;;;17.50;99.90;;;;;;4893357;29;20052;-87
2022/09/14 09:11:54;;;;;;;6.63;0.95;;;17.50;99.90;;;;;;4909498;29;20492;-86
2022/09/14 09:14:25;;;;;;;8.05;1.05;;;17.60;99.90;;;;;;4910749;29;20040;-86
2022/09/14 09:16:55;;;;;;;4.28;0.70;;;17.70;99.90;;;;;;4910825;29;20064;-86
2022/09/14 09:19:44;;;;;;;9.45;0.95;;;17.80;99.90;;;;;;4905486;29;20063;-86
2022/09/14 09:22:15;;;;;;;10.13;1.13;;;18.10;99.90;;;;;;4904644;29;20048;-86
2022/09/14 09:24:46;;;;;;;6.53;0.85;;;18.40;99.90;;;;;;4908214;29;20063;-86
2022/09/14 09:27:13;;;;;;;5.07;0.75;;;18.60;99.90;;;;;;4909179;29;20096;-86
2022/09/14 09:29:39;;;;;;;4.22;0.70;;;19.00;99.90;;;;;;4894331;29;20416;-86
2022/09/14 09:32:10;;;;;;;7.35;0.90;;;19.10;99.90;;;;;;4913714;29;20052;-87
2022/09/14 09:34:35;;;;;;;5.20;0.75;;;19.00;99.90;;;;;;4893189;29;20048;-87
2022/09/14 09:37:01;;;;;;;6.20;1.02;;;19.20;99.90;;;;;;4919483;28;20062;-87
2022/09/14 09:39:30;;;;;;;8.80;1.73;;;19.30;99.90;;;;;;4951784;28;20097;-87
2022/09/14 09:42:14;;;;;;;5.95;0.73;;;19.40;99.90;;;;;;4946035;29;20509;-86
2022/09/14 09:45:01;;;;;;;7.30;1.00;;;19.50;99.90;;;;;;4948215;28;20087;-87
2022/09/14 09:47:31;;;;;;;4.78;0.68;;;19.60;99.90;;;;;;4949315;28;20075;-87
2022/09/14 09:50:05;;;;;;;6.25;0.82;;;19.60;99.90;;;;;;4953755;28;20121;-86
2022/09/14 09:52:31;;;;;;;4.75;0.80;;;19.60;99.90;;;;;;4946439;28;20118;-87
2022/09/14 09:54:58;;;;;;;7.45;0.60;;;19.60;99.90;;;;;;4945586;28;20089;-87
2022/09/14 09:57:32;;;;;;;3.95;0.85;;;19.70;99.90;;;;;;4948870;28;20107;-87
2022/09/14 10:00:17;;;;;;;5.43;0.87;;;19.70;99.90;;;;;;4949896;28;20053;-86
2022/09/14 10:02:43;;;;;;;6.38;1.10;;;19.80;99.90;;;;;;4950308;28;20306;-87
2022/09/14 10:05:27;;;;;;;7.18;0.98;;;19.70;99.90;;;;;;4933737;28;20092;-87
2022/09/14 10:08:05;;;;;;;6.97;1.00;;;19.70;99.90;;;;;;4947721;28;20047;-87
2022/09/14 10:10:33;;;;;;;3.83;0.70;;;19.70;99.90;;;;;;4948650;28;20174;-89
2022/09/14 10:12:59;;;;;;;5.10;1.10;;;19.80;99.90;;;;;;4950311;28;20213;-88
2022/09/14 10:15:28;;;;;;;8.52;1.27;;;19.80;99.90;;;;;;4949019;28;20051;-88
2022/09/14 10:18:12;;;;;;;9.02;1.20;;;19.90;99.90;;;;;;4949602;28;20048;-87
2022/09/14 10:20:44;;;;;;;6.10;1.00;;;20.00;99.90;;;;;;4948832;28;20335;-88
2022/09/14 10:23:18;;;;;;;7.20;0.98;;;20.10;99.90;;;;;;4949704;28;20298;-86
2022/09/14 10:25:45;;;;;;;6.47;0.60;;;20.10;99.90;;;;;;4951134;28;20058;-92
2022/09/14 10:28:32;;;;;;;7.40;0.90;;;20.20;99.90;;;;;;4933322;28;20072;-90
2022/09/14 10:31:13;;;;;;;3.15;0.60;;;20.40;99.90;;;;;;4949508;28;20043;-88
2022/09/14 10:33:39;;;;;;;5.47;0.75;;;20.70;99.90;;;;;;4932376;28;20051;-88
2022/09/14 10:36:13;;;;;;;7.50;0.70;;;20.90;99.90;;;;;;4946957;28;20102;-88
2022/09/14 10:39:02;;;;;;;9.10;0.85;;;21.10;99.90;;;;;;4930520;29;20078;-88
2022/09/14 10:41:44;;;;;;;4.18;0.80;;;21.30;99.90;;;;;;4929776;29;20103;-89
2022/09/14 10:44:43;;;;;;;4.38;0.55;;;21.40;98.10;;;;;;4949771;28;20051;-89
2022/09/14 10:47:28;;;;;;;6.50;0.90;;;21.50;99.90;;;;;;4947608;28;20043;-88
2022/09/14 10:50:14;;;;;;;4.88;1.00;;;21.80;99.90;;;;;;4951835;28;20051;-88
2022/09/14 10:52:49;;;;;;;6.45;0.52;;;22.10;99.90;;;;;;4951889;28;20047;-88
2022/09/14 10:55:54;;;;;;;4.95;0.63;;;22.30;99.30;;;;;;4951726;28;20039;-89
2022/09/14 10:58:35;;;;;;;6.07;0.82;;;22.40;98.10;;;;;;4951166;28;20035;-89
2022/09/14 11:01:12;;;;;;;7.10;0.82;;;22.40;98.60;;;;;;4936376;29;20039;-88
2022/09/14 11:04:19;;;;;;;3.25;0.82;;;22.40;98.50;;;;;;4951555;28;20055;-88
2022/09/14 11:07:11;;;;;;;6.35;0.77;;;22.20;98.20;;;;;;4947338;28;20464;-88
2022/09/14 11:09:53;;;;;;;6.30;0.73;;;22.00;97.60;;;;;;4950130;28;20541;-88
2022/09/14 11:12:22;;;;;;;3.55;0.50;;;21.80;99.20;;;;;;4952372;28;20066;-88
2022/09/14 11:14:54;;;;;;;4.35;0.65;;;21.50;99.50;;;;;;4952129;28;20047;-88
2022/09/14 11:17:44;;;;;;;5.43;0.63;;;21.40;99.60;;;;;;4951125;28;20103;-88
2022/09/14 11:20:25;;;;;;;2.63;0.68;;;21.30;99.40;;;;;;4933633;29;20388;-88
2022/09/14 11:23:29;;;;;;;5.25;0.90;;;21.10;99.90;;;;;;4950642;28;20047;-89
2022/09/14 11:26:30;;;;;;;9.00;1.00;;;21.00;99.80;;;;;;4950459;28;20095;-90
2022/09/14 11:29:15;;;;;;;4.68;1.00;;;21.00;99.90;;;;;;4943337;28;20576;-88
2022/09/14 11:31:50;;;;;;;6.20;0.60;;;20.90;99.90;;;;;;4952161;28;20394;-88
2022/09/14 11:34:20;;;;;;;7.72;0.95;;;20.90;99.90;;;;;;4949049;28;20126;-88
2022/09/14 11:36:51;;;;;;;4.28;0.73;;;20.80;99.90;;;;;;4933937;28;20051;-88
2022/09/14 11:39:27;;;;;;;6.28;0.73;;;20.80;99.90;;;;;;4951751;28;20076;-88
2022/09/14 11:42:07;;;;;;;7.22;0.80;;;20.70;99.90;;;;;;4951853;28;20114;-88
2022/09/14 11:44:39;;;;;;;6.45;0.90;;;20.70;99.90;;;;;;4951606;28;20518;-88
2022/09/14 11:47:12;;;;;;;4.97;0.57;;;20.70;99.90;;;;;;4951867;28;20050;-88
2022/09/14 11:49:44;;;;;;;5.95;0.82;;;20.60;99.90;;;;;;4951184;28;20055;-88
2022/09/14 11:52:24;;;;;;;6.43;1.10;;;20.50;99.90;;;;;;4948977;28;20039;-88
2022/09/14 11:54:50;;;;;;;12.00;1.40;;;20.40;99.90;;;;;;4954345;28;20043;-88
2022/09/14 11:57:25;;;;;;;3.55;0.65;;;20.50;99.90;;;;;;4960311;28;20148;-88
2022/09/14 12:00:05;;;;;;;7.32;0.93;;;20.40;99.90;;;;;;4951152;28;20047;-88
2022/09/14 12:02:31;;;;;;;5.38;0.85;;;20.50;99.90;;;;;;4950126;28;20122;-87
2022/09/14 12:05:09;;;;;;;5.80;0.88;;;20.60;99.90;;;;;;4950632;28;20198;-88
2022/09/14 12:07:48;;;;;;;5.05;1.20;;;20.80;99.90;;;;;;4950572;28;20127;-88
2022/09/14 12:10:14;;;;;;;6.30;0.98;;;21.00;99.90;;;;;;4950030;28;20055;-90
2022/09/14 12:12:51;;;;;;;5.57;0.60;;;21.10;99.90;;;;;;4934102;28;20050;-90
2022/09/14 12:15:16;;;;;;;6.57;1.10;;;21.30;99.90;;;;;;4932820;28;20130;-90
2022/09/14 12:17:44;;;;;;;4.78;0.70;;;21.40;99.60;;;;;;4951114;28;20126;-87
2022/09/14 12:20:26;;;;;;;6.35;0.77;;;21.40;99.70;;;;;;4952863;28;20075;-83
2022/09/14 12:23:04;;;;;;;5.20;0.90;;;21.50;99.00;;;;;;4935190;28;20058;-87
2022/09/14 12:25:30;;;;;;;4.00;0.90;;;21.50;98.80;;;;;;4959798;28;20170;-84
2022/09/14 12:27:56;;;;;;;5.65;0.70;;;21.50;99.10;;;;;;4951768;28;20043;-88
2022/09/14 12:30:40;;;;;;;6.00;0.80;;;21.40;98.70;;;;;;4948771;28;20054;-88
2022/09/14 12:33:30;;;;;;;5.32;0.93;;;21.40;98.70;;;;;;4949475;28;20051;-87
2022/09/14 12:35:57;;;;;;;4.25;0.82;;;21.40;98.30;;;;;;4931979;28;20064;-88
2022/09/14 12:38:29;;;;;;;6.75;0.80;;;21.40;99.20;;;;;;4950797;28;20043;-87
2022/09/14 12:40:56;;;;;;;3.20;0.60;;;21.60;98.70;;;;;;4949594;28;20114;-88
2022/09/14 12:43:33;;;;;;;6.43;0.90;;;21.50;98.70;;;;;;4949964;28;20338;-88
2022/09/14 12:46:09;;;;;;;5.47;0.70;;;21.50;98.40;;;;;;4932936;29;20047;-88
2022/09/14 12:48:46;;;;;;;7.78;0.93;;;21.40;98.80;;;;;;4950233;28;20040;-88
2022/09/14 12:51:31;;;;;;;8.32;0.90;;;21.40;98.80;;;;;;4951079;28;20115;-87
2022/09/14 12:54:23;;;;;;;3.70;0.70;;;21.30;98.80;;;;;;4949604;28;20156;-88
2022/09/14 12:57:06;;;;;;;4.30;0.70;;;21.30;99.00;;;;;;4949010;28;20047;-87
2022/09/14 12:59:48;;;;;;;4.90;0.75;;;21.20;99.40;;;;;;4932699;29;20480;-88
2022/09/14 13:02:48;;;;;;;4.97;0.80;;;21.20;99.00;;;;;;4947816;29;20054;-88
2022/09/14 13:05:16;;;;;;;9.35;1.10;;;21.20;99.10;;;;;;4946279;28;20423;-88
2022/09/14 13:07:43;;;;;;;3.33;0.75;;;21.30;99.10;;;;;;4951001;28;20448;-87
2022/09/14 13:10:27;;;;;;;7.40;1.35;;;21.30;98.80;;;;;;4944455;28;20127;-88
2022/09/14 13:12:54;;;;;;;4.22;0.77;;;21.40;98.80;;;;;;4948278;28;20055;-88
2022/09/14 13:15:27;;;;;;;4.35;0.60;;;21.50;98.10;;;;;;4933095;28;20043;-87
2022/09/14 13:17:56;;;;;;;5.53;0.70;;;21.50;97.70;;;;;;4952035;28;20134;-88